Weather at Chanmyathazi Airport

Public forecast

Using degrees Celsius for public forecast. Weather courtesy of forecast.io.

Closest aviation weather report (METAR) to Chanmyathazi Airport

Closest report is Mandalay International Airport, 15.6 nm (28.9 km) SSW. Retrieved 2020/09/18 11:30 UTC (1 hour ago):

VYMD 181130Z 04010KT 6000 BKN020 FEW025CB BKN120 35/24 Q1000

Closest aviation forecast (TAF) to Chanmyathazi Airport

Closest forecast is Mandalay International Airport, 15.6 nm (28.9 km) SSW. Retrieved 2020/09/18 12:00 UTC (48 minutes ago):

TAF VYMD 181100Z 1812/1912 17008KT 7000 BKN020 BKN100 TEMPO 1812/1818 14010KT 6000 BKN018 FEW020CB BKN100